• Join FlightAware (Why Join?)
  • Login
  • US Flag 
10:03AM EDT


 

Airport Tracker/Info


-or-


 

Live Flight TrackerFlight Track Log ✈ AFL150 ✈ 17-Nov-2013 ✈ UUEE / SVO - MUHA / HAV

Flight Track Log - Related Links

Times and Time Zones

All times are in EST time to prevent confusion due to time zone crossing. See the AFL150 flight status page for this flight to view local times or setup timezone preferences in your user account.

Time Position Orientation Groundspeed Altitude Reporting Facility
EST Latitude Longitude Course Direction KTS MPH feet Rate Location/Type
04:54AM 55.9720 37.4220 209° Southwest 130 150  Level FlightAware
04:55AM 55.9650 37.3700 256° West 152 175 2,300 2,880 Climbing FlightAware
04:56AM 55.9590 37.3280 256° West 147 169 3,700 1,560 Climbing FlightAware
04:56AM 55.9530 37.2910 254° West 180 207 4,100 1,140 Climbing FlightAware
04:57AM 55.9440 37.2210 257° West 217 250 5,100 1,860 Climbing FlightAware
04:57AM 55.9510 37.1620 282° West 216 249 6,500 2,280 Climbing FlightAware
04:58AM 55.9830 37.1230 326° Northwest 252 290 7,800 2,160 Climbing FlightAware
04:59AM 56.0190 37.1360 11° North 299 344 8,900 2,160 Climbing FlightAware
04:59AM 56.0530 37.2060 49° Northeast 326 375 10,200 1,440 Climbing FlightAware
05:00AM 56.1180 37.3550 52° Northeast 390 449 11,300 1,140 Climbing FlightAware
05:01AM 56.1590 37.4490 52° Northeast 412 474 12,100 1,860 Climbing FlightAware
05:02AM 56.2450 37.6100 46° Northeast 415 478 14,500 2,100 Climbing FlightAware
05:02AM 56.2870 37.6820 44° Northeast 417 480 15,500 1,980 Climbing FlightAware
05:03AM 56.3360 37.7250 26° Northeast 385 443 16,500 2,040 Climbing FlightAware
05:03AM 56.3890 37.7430 11° North 386 444 17,600 1,920 Climbing FlightAware
05:04AM 56.4500 37.7670 12° North 393 452 18,600 1,740 Climbing FlightAware
05:05AM 56.5210 37.7940 12° North 400 460 19,800 1,620 Climbing FlightAware
05:05AM 56.5960 37.8230 12° North 409 471 20,800 1,620 Climbing FlightAware
05:06AM 56.7070 37.8660 12° North 415 478 22,500 1,800 Climbing FlightAware
05:07AM 56.7720 37.8910 12° North 412 474 23,700 1,560 Climbing FlightAware
05:08AM 56.8470 37.9200 12° North 418 481 24,500 1,260 Climbing FlightAware
05:08AM 56.9140 37.9460 12° North 422 486 25,300 1,080 Climbing FlightAware
05:09AM 57.0280 37.9900 12° North 427 491 26,300 900 Climbing FlightAware
05:10AM 57.0960 38.0000 North 424 488 26,800 1,020 Climbing FlightAware
05:10AM 57.1750 38.0020 North 427 491 27,600 1,140 Climbing FlightAware
05:11AM 57.2350 38.0050 North 429 494 28,200 1,080 Climbing FlightAware
05:11AM 57.3030 38.0080 North 430 495 28,800 1,020 Climbing FlightAware
05:12AM 57.3840 38.0120 North 432 497 29,500 960 Climbing FlightAware
05:13AM 57.4430 38.0150 North 430 495 30,000 1,080 Climbing FlightAware
05:13AM 57.5120 38.0170 North 426 490 30,700 1,020 Climbing FlightAware
05:14AM 57.6200 38.0200 North 424 488 31,600 960 Climbing FlightAware
05:15AM 57.6990 38.0230 North 424 488 32,300 1,020 Climbing FlightAware
05:15AM 57.7570 38.0250 North 422 486 32,800 1,020 Climbing FlightAware
05:16AM 57.8430 38.0290 North 417 480 33,600 780 Climbing FlightAware
05:17AM 57.9310 38.0330 North 414 476 34,000 240 Climbing FlightAware
05:17AM 58.0060 38.0360 North 412 474 34,000  Level FlightAware
05:18AM 58.0730 38.0380 North 410 472 34,000  Level FlightAware
05:19AM 58.1470 38.0410 North 409 471 34,000  Level FlightAware
05:19AM 58.2140 38.0440 North 409 471 34,000  Level FlightAware
05:20AM 58.2810 38.0470 North 411 473 34,000  Level FlightAware
05:21AM 58.3760 38.0510 North 414 476 34,000  Level FlightAware
05:22AM 58.5110 38.0560 North 419 482 34,000  Level FlightAware
05:22AM 58.5590 38.0590 North 420 483 34,000  Level FlightAware
05:23AM 58.6340 38.0620 North 422 486 34,000  Level FlightAware
05:24AM 58.7900 38.0580 359° North 416 479 34,000  Level FlightAware
05:25AM 58.8670 38.0520 358° North 418 481 34,000  Level FlightAware
05:25AM 58.9260 38.0470 357° North 419 482 34,000  Level FlightAware
05:26AM 59.0020 38.0410 358° North 420 483 34,000  Level FlightAware
05:27AM 59.0790 38.0350 358° North 420 483 34,000  Level FlightAware
05:27AM 59.1500 38.0300 358° North 420 483 34,000  Level FlightAware
05:28AM 59.2270 38.0240 358° North 420 483 34,000  Level FlightAware
05:29AM 59.2960 38.0130 355° North 412 474 34,000  Level FlightAware
05:29AM 59.3520 37.9930 350° North 412 474 34,000  Level FlightAware
05:30AM 59.4040 37.9750 350° North 416 479 34,000  Level FlightAware
05:31AM 59.5050 37.9410 350° North 415 478 34,000  Level FlightAware
05:31AM 59.5730 37.9170 350° North 415 478 34,000  Level FlightAware
05:32AM 59.6280 37.8980 350° North 411 473 34,000  Level FlightAware
05:32AM 59.7030 37.8720 350° North 410 472 34,000  Level FlightAware
05:33AM 59.7520 37.8550 350° North 410 472 34,000  Level FlightAware
05:33AM 59.8120 37.8310 349° North 410 472 34,000  Level FlightAware
05:34AM 59.9080 37.8000 351° North 410 472 34,000  Level FlightAware
05:35AM 59.9880 37.7710 350° North 411 473 34,000  Level FlightAware
05:35AM 60.0530 37.7410 347° North 412 474 34,000  Level FlightAware
05:36AM 60.1170 37.7040 344° North 407 468 34,000  Level FlightAware
05:37AM 60.1900 37.6630 344° North 412 474 34,000  Level FlightAware
05:37AM 60.2360 37.6370 344° North 415 478 34,000  Level FlightAware
05:39AM 60.3920 37.5480 344° North 415 478 34,000  Level FlightAware
05:39AM 60.4560 37.5110 344° North 415 478 34,000  Level FlightAware
05:40AM 60.5190 37.4750 344° North 415 478 34,000  Level FlightAware
05:40AM 60.5740 37.4430 344° North 420 483 34,000  Level FlightAware
05:41AM 60.6500 37.3990 344° North 425 489 34,000  Level FlightAware
05:41AM 60.7200 37.3580 344° North 424 488 34,000  Level FlightAware
05:42AM 60.7700 37.3290 344° North 424 488 34,000  Level FlightAware
05:43AM 60.9000 37.2510 344° North 427 491 34,000  Level FlightAware
05:44AM 60.9650 37.2130 344° North 427 491 34,000  Level FlightAware
05:44AM 61.0170 37.1820 344° North 431 496 34,000  Level FlightAware
05:45AM 61.1400 37.1080 344° North 442 509 34,000  Level FlightAware
05:46AM 61.1880 37.0790 344° North 442 509 34,000  Level FlightAware
05:46AM 61.2560 37.0370 343° North 444 511 34,000  Level FlightAware
05:47AM 61.3160 37.0010 344° North 442 509 34,000  Level FlightAware
05:48AM 61.4330 36.9310 344° North 440 506 34,000  Level FlightAware
05:49AM 61.5600 36.8530 344° North 435 501 34,000  Level FlightAware
05:50AM 61.7020 36.7650 344° North 433 498 34,000  Level FlightAware
05:51AM 61.7700 36.7230 344° North 433 498 34,000  Level FlightAware
05:51AM 61.8380 36.6800 343° North 434 499 34,000  Level FlightAware
05:52AM 61.9150 36.6320 344° North 435 501 34,000  Level FlightAware
05:52AM 61.9730 36.5950 343° North 435 501 34,000  Level FlightAware
05:53AM 62.1060 36.5100 343° North 439 505 34,000  Level FlightAware
05:54AM 62.1790 36.4640 344° North 442 509 34,000  Level FlightAware
05:55AM 62.2640 36.4090 343° North 441 507 34,000  Level FlightAware
05:55AM 62.3420 36.3580 343° North 442 509 34,000  Level FlightAware
05:56AM 62.4000 36.3200 343° North 443 510 34,000  Level FlightAware
05:57AM 62.4770 36.2700 343° North 443 510 34,000  Level FlightAware
05:57AM 62.5260 36.2370 343° North 444 511 34,000  Level FlightAware
05:58AM 62.5860 36.1980 343° North 444 511 34,000  Level FlightAware
05:58AM 62.6520 36.1540 343° North 444 511 34,000  Level FlightAware
05:59AM 62.7810 36.0680 343° North 447 514 34,000  Level FlightAware
06:00AM 62.8610 36.0140 343° North 449 517 34,000  Level FlightAware
06:00AM 62.9310 35.9670 343° North 450 518 34,000  Level FlightAware
06:01AM 62.9990 35.9200 343° North 450 518 34,000  Level FlightAware
06:02AM 63.0940 35.8550 343° North 449 517 34,000  Level FlightAware
06:02AM 63.1530 35.8150 343° North 451 519 34,000  Level FlightAware
06:03AM 63.2760 35.7290 343° North 452 520 34,000  Level FlightAware
06:04AM 63.3520 35.6770 343° North 454 522 34,000  Level FlightAware
06:05AM 63.4320 35.6210 343° North 457 526 34,000  Level FlightAware
06:05AM 63.5030 35.5710 343° North 458 527 34,000  Level FlightAware
06:06AM 63.5600 35.5310 343° North 458 527 34,000  Level FlightAware
06:07AM 63.6520 35.4660 343° North 457 526 34,000  Level FlightAware
06:07AM 63.7290 35.4110 342° North 455 524 34,000  Level FlightAware
06:08AM 63.8020 35.3590 343° North 453 521 34,000  Level FlightAware
06:08AM 63.8530 35.3220 342° North 451 519 34,000  Level FlightAware
06:09AM 64.0020 35.2130 342° North 448 516 34,000  Level FlightAware
06:10AM 64.1200 35.1260 342° North 447 514 34,000  Level FlightAware
06:11AM 64.1490 35.1050 342° North 447 514 34,000  Level FlightAware
06:12AM 64.2850 35.0030 342° North 448 516 34,000  Level FlightAware
06:13AM 64.4140 34.9060 342° North 451 519 34,000  Level FlightAware
06:13AM 64.4740 34.8600 342° North 451 519 34,000  Level FlightAware
06:14AM 64.5440 34.8070 342° North 452 520 34,000  Level FlightAware
06:14AM 64.6020 34.7620 342° North 454 522 34,000  Level FlightAware
06:15AM 64.6820 34.7010 342° North 455 524 34,000  Level FlightAware
06:16AM 64.7580 34.6420 342° North 455 524 34,000  Level FlightAware
06:17AM 64.8610 34.5620 342° North 455 524 34,000  Level FlightAware
06:17AM 64.9390 34.5000 341° North 455 524 34,000  Level FlightAware
06:18AM 65.0080 34.4530 344° North 459 528 34,000  Level FlightAware
06:18AM 65.0720 34.4150 346° North 460 529 34,000  Level FlightAware
06:19AM 65.1700 34.3560 346° North 461 531 34,000  Level FlightAware
06:20AM 65.2270 34.3200 345° North 460 529 34,000  Level FlightAware
06:20AM 65.3270 34.2580 345° North 460 529 34,000  Level FlightAware
06:21AM 65.4340 34.1900 345° North 458 527 34,000  Level FlightAware
06:22AM 65.4790 34.1610 345° North 458 527 34,000  Level FlightAware
06:23AM 65.5830 34.0930 345° North 458 527 34,000  Level FlightAware
06:23AM 65.6460 34.0530 345° North 458 527 34,000  Level FlightAware
06:24AM 65.7520 33.9840 345° North 458 527 34,000  Level FlightAware
06:25AM 65.8150 33.9430 345° North 458 527 34,000  Level FlightAware
06:26AM 65.8770 33.9020 345° North 458 527 34,000  Level FlightAware
06:26AM 65.9610 33.8470 345° North 458 527 34,000  Level FlightAware
06:27AM 66.0230 33.8060 345° North 458 527 34,000  Level FlightAware
06:28AM 66.0860 33.7640 345° North 458 527 34,000  Level FlightAware
06:28AM 66.1490 33.7230 345° North 458 527 34,000  Level FlightAware
06:29AM 66.1900 33.6950 345° North 458 527 34,000  Level FlightAware
06:29AM 66.2740 33.6390 345° North 458 527 34,000  Level FlightAware
06:30AM 66.3570 33.5840 345° North 458 527 34,000  Level FlightAware
06:31AM 66.4410 33.5280 345° North 458 527 34,000  Level FlightAware
06:33AM 66.7240 32.8120 315° West 446 513 34,000  Level FlightAware
06:33AM 66.7650 32.7220 319° Northwest 445 512 34,000  Level FlightAware
06:34AM 66.8340 32.5680 319° Northwest 445 512 34,000  Level FlightAware
06:35AM 66.9380 32.3350 319° Northwest 448 516 34,000  Level FlightAware
06:36AM 66.9930 32.2120 319° Northwest 447 514 34,000  Level FlightAware
06:36AM 67.0400 32.1050 318° Northwest 441 507 34,000  Level FlightAware
06:37AM 67.0930 31.9820 318° Northwest 441 507 34,000  Level FlightAware
06:37AM 67.1490 31.8540 318° Northwest 441 507 34,000  Level FlightAware
06:38AM 67.1930 31.7510 318° Northwest 442 509 34,000  Level FlightAware
06:38AM 67.2530 31.6120 318° Northwest 440 506 34,000  Level FlightAware
06:39AM 67.3060 31.4880 318° Northwest 440 506 34,000  Level FlightAware
06:40AM 67.3740 31.3280 318° Northwest 440 506 34,000  Level FlightAware
06:40AM 67.4320 31.1890 317° Northwest 445 512 34,000  Level FlightAware
06:41AM 67.4870 31.0570 317° Northwest 443 510 34,000  Level FlightAware
06:42AM 67.5390 30.9310 317° Northwest 442 509 34,000  Level FlightAware
06:42AM 67.6000 30.7840 317° Northwest 443 510 34,000  Level FlightAware
06:43AM 67.6580 30.6410 317° Northwest 441 507 34,000  Level FlightAware
06:43AM 67.7080 30.5190 317° Northwest 442 509 34,000  Level FlightAware
06:44AM 67.7550 30.4030 317° Northwest 442 509 34,000  Level FlightAware
06:45AM 67.8040 30.2820 317° Northwest 442 509 34,000  Level FlightAware
06:45AM 67.8620 30.1350 316° Northwest 441 507 34,000  Level FlightAware
06:46AM 67.9520 29.9090 317° Northwest 439 505 34,000  Level FlightAware
06:47AM 68.0050 29.7750 317° Northwest 442 509 34,000  Level FlightAware
06:47AM 68.0560 29.6440 316° Northwest 440 506 34,000  Level FlightAware
06:48AM 68.1030 29.5230 316° Northwest 441 507 34,000  Level FlightAware
06:49AM 68.1640 29.3640 316° Northwest 443 510 34,000  Level FlightAware
06:49AM 68.2210 29.2130 316° Northwest 444 511 34,000  Level FlightAware
06:50AM 68.2720 29.0800 316° Northwest 444 511 34,000  Level FlightAware
06:51AM 68.3560 28.8560 316° Northwest 447 514 34,000  Level FlightAware
06:51AM 68.4140 28.7020 316° Northwest 446 513 34,000  Level FlightAware
06:52AM 68.4800 28.5220 315° West 447 514 34,000  Level FlightAware
06:53AM 68.5230 28.3970 313° West 445 512 34,000  Level FlightAware
06:53AM 68.5790 28.2200 311° West 447 514 34,000  Level FlightAware
06:54AM 68.6170 28.1070 313° West 445 512 34,000  Level FlightAware
06:54AM 68.6670 27.9510 311° West 445 512 34,000  Level FlightAware
06:55AM 68.7030 27.8350 311° West 445 512 34,000  Level FlightAware
06:56AM 68.7520 27.6810 311° West 446 513 34,000  Level FlightAware
06:56AM 68.7990 27.5310 311° West 443 510 34,000  Level FlightAware
06:57AM 68.8640 27.3220 311° West 441 507 34,000  Level FlightAware
06:58AM 68.9380 27.0810 311° West 436 502 34,000  Level FlightAware
06:58AM 68.9780 26.9490 310° West 436 502 34,000  Level FlightAware
06:59AM 69.0250 26.7940 310° West 436 502 34,000  Level FlightAware
07:00AM 69.0730 26.6360 310° West 441 507 34,000  Level FlightAware
07:00AM 69.1260 26.4580 310° West 440 506 34,000  Level FlightAware
07:01AM 69.1780 26.2790 309° West 438 504 34,000  Level FlightAware
07:02AM 69.2320 26.0970 310° West 441 507 34,000  Level FlightAware
07:02AM 69.2710 25.9620 309° West 441 507 34,000  Level FlightAware
07:03AM 69.3150 25.8100 309° West 439 505 34,000  Level FlightAware
07:03AM 69.3590 25.6560 309° West 438 504 34,000  Level FlightAware
07:04AM 69.3990 25.5140 309° West 439 505 34,000  Level FlightAware
07:04AM 69.4420 25.3610 309° West 434 499 34,000  Level FlightAware
07:05AM 69.4950 25.1740 309° West 433 498 34,000  Level FlightAware
07:06AM 69.5410 25.0080 308° West 432 497 34,000  Level FlightAware
07:06AM 69.5810 24.8640 309° West 435 501 34,000  Level FlightAware
07:07AM 69.6220 24.7140 308° West 437 503 34,000  Level FlightAware
07:07AM 69.6440 24.6330 308° West 437 503 34,000  Level FlightAware
07:08AM 69.6870 24.4750 308° West 439 505 34,000  Level FlightAware
07:09AM 69.7650 24.1840 308° West 439 505 34,000  Level FlightAware
07:09AM 69.8040 24.0370 308° West 442 509 34,000  Level FlightAware
07:10AM 69.8520 23.8570 308° West 447 514 34,000  Level FlightAware
07:11AM 69.9300 23.5560 307° West 444 511 34,000  Level FlightAware
07:11AM 69.9450 23.5010 309° West 445 512 34,000  Level FlightAware
07:12AM 70.0160 23.1240 299° West 434 499 34,000  Level FlightAware
07:13AM 70.0430 22.9680 297° West 432 497 34,000  Level FlightAware
07:14AM 70.0810 22.7330 295° West 423 487 34,000  Level FlightAware
07:15AM 70.1350 22.3940 295° West 426 490 34,000  Level FlightAware
07:16AM 70.1760 22.1310 295° West 427 491 34,000  Level FlightAware
07:16AM 70.2130 21.8930 295° West 421 484 34,000  Level FlightAware
07:17AM 70.2610 21.5750 294° West 434 499 34,000 60 Level FlightAware
07:18AM 70.3060 21.2750 294° West 435 501 34,200 300 Climbing FlightAware
07:19AM 70.3300 21.1100 293° West 439 505 34,500 1,200 Climbing FlightAware
07:19AM 70.3620 20.8930 294° West 424 488 35,600 840 Climbing FlightAware
07:20AM 70.3980 20.6470 294° West 435 501 35,700 180 Climbing FlightAware
07:21AM 70.4480 20.2930 293° West 440 506 36,000 180 Climbing FlightAware
07:22AM 70.4760 20.0900 293° West 435 501 36,000  Level FlightAware
07:23AM 70.5230 19.7530 293° West 436 502 36,000  Level FlightAware
07:23AM 70.5460 19.5860 293° West 437 503 36,000  Level FlightAware
07:24AM 70.5680 19.4230 292° West 435 501 36,000  Level FlightAware
07:25AM 70.6020 19.1670 292° West 435 501 36,000  Level FlightAware
07:25AM 70.6280 18.9230 288° West 434 499 36,000  Level FlightAware
07:26AM 70.6580 18.5120 283° West 433 498 36,000  Level FlightAware
07:27AM 70.6740 18.2820 282° West 432 497 36,000  Level FlightAware
07:28AM 70.7020 17.8760 282° West 430 495 36,000  Level FlightAware
07:29AM 70.7190 17.6090 281° West 430 495 36,000  Level FlightAware
07:30AM 70.7360 17.3420 281° West 431 496 36,000  Level FlightAware
07:30AM 70.7480 17.1530 281° West 431 496 36,000  Level FlightAware
07:31AM 70.7620 16.9150 280° West 432 497 36,000  Level FlightAware
07:32AM 70.7820 16.5900 281° West 426 490 36,000  Level FlightAware
07:32AM 70.7900 16.4480 280° West 425 489 36,000  Level FlightAware
07:33AM 70.8040 16.2160 281° West 425 489 36,000  Level FlightAware
07:34AM 70.8120 16.0300 278° West 425 489 36,000  Level FlightAware
07:34AM 70.8200 15.8480 278° West 425 489 36,000  Level FlightAware
07:35AM 70.8360 15.6210 282° West 427 491 36,000  Level FlightAware
07:35AM 70.8470 15.4190 280° West 427 491 36,000  Level FlightAware
07:36AM 70.8530 15.2970 279° West 427 491 36,000  Level FlightAware
07:36AM 70.8640 15.0970 280° West 444 511 36,000  Level FlightAware
07:37AM 70.8800 14.7730 279° West 425 489 36,000  Level FlightAware
07:38AM 70.8920 14.5170 278° West 427 491 36,000  Level FlightAware
07:38AM 70.9010 14.3190 278° West 427 491 36,000  Level FlightAware
07:39AM 70.9090 14.1500 278° West 427 491 36,000  Level FlightAware
07:40AM 70.9180 13.8840 276° West 427 491 36,000  Level FlightAware
07:40AM 70.9240 13.7000 276° West 427 491 36,000  Level FlightAware
07:41AM 70.9280 13.5730 276° West 427 491 36,000  Level FlightAware
07:41AM 70.9370 13.3120 276° West 427 491 36,000  Level FlightAware
07:42AM 70.9480 13.0000 276° West 427 491 36,000  Level FlightAware
07:43AM 70.9560 12.7540 276° West 427 491 36,000  Level FlightAware
07:44AM 70.9630 12.5700 277° West 427 491 36,000  Level FlightAware
07:45AM 70.9730 12.2630 276° West 427 491 36,000  Level FlightAware
07:46AM 70.9810 12.0170 276° West 427 491 36,000  Level FlightAware
07:46AM 70.9880 11.8320 277° West 427 491 36,000  Level FlightAware
07:47AM 70.9940 11.6430 276° West 427 491 36,000  Level FlightAware
07:48AM 71.0000 11.4580 276° West 427 491 36,000  Level FlightAware
07:48AM 71.0050 11.3350 277° West 427 491 36,000  Level FlightAware
07:49AM 71.0110 11.1500 276° West 427 491 36,000  Level FlightAware
07:49AM 71.0130 11.0880 276° West 427 491 36,000  Level FlightAware
07:52AM 71.0729 10.1051 281° West  Level Estimated
07:53AM 71.0931 9.7527 280° West  Level Estimated
07:54AM 71.1125 9.3995 280° West  Level Estimated
07:55AM 71.1313 9.0457 279° West  Level Estimated
07:56AM 71.1495 8.6912 279° West  Level Estimated
07:57AM 71.1670 8.3360 279° West  Level Estimated
07:58AM 71.1837 7.9802 278° West  Level Estimated
07:59AM 71.1999 7.6238 278° West  Level Estimated
08:00AM 71.2153 7.2669 278° West  Level Estimated
08:01AM 71.2301 6.9094 277° West  Level Estimated
08:02AM 71.2441 6.5513 277° West  Level Estimated
08:03AM 71.2576 6.1928 277° West  Level Estimated
08:04AM 71.2703 5.8337 276° West  Level Estimated
08:05AM 71.2823 5.4742 276° West  Level Estimated
08:06AM 71.2936 5.1143 276° West  Level Estimated
08:07AM 71.3043 4.7540 275° West  Level Estimated
08:08AM 71.3142 4.3933 275° West  Level Estimated
08:09AM 71.3235 4.0322 275° West  Level Estimated
08:10AM 71.3321 3.6708 274° West  Level Estimated
08:11AM 71.3400 3.3091 274° West  Level Estimated
08:12AM 71.3472 2.9471 274° West  Level Estimated
08:13AM 71.3537 2.5848 273° West  Level Estimated
08:14AM 71.3595 2.2223 273° West  Level Estimated
08:15AM 71.3646 1.8597 273° West  Level Estimated
08:16AM 71.3691 1.4968 272° West  Level Estimated
08:17AM 71.3728 1.1338 272° West  Level Estimated
08:18AM 71.3758 0.7706 272° West  Level Estimated
08:19AM 71.3782 0.4074 271° West  Level Estimated
08:20AM 71.3798 0.0441 271° West  Level Estimated
08:21AM 71.3807 -0.3193 271° West  Level Estimated
08:22AM 71.3810 -0.6827 270° West  Level Estimated
08:23AM 71.3805 -1.0461 270° West  Level Estimated
08:24AM 71.3794 -1.4095 270° West  Level Estimated
08:25AM 71.3775 -1.7728 269° West  Level Estimated
08:26AM 71.3750 -2.1360 269° West  Level Estimated
08:27AM 71.3717 -2.4991 269° West  Level Estimated
08:28AM 71.3678 -2.8621 268° West  Level Estimated
08:29AM 71.3631 -3.2249 268° West  Level Estimated
08:30AM 71.3578 -3.5875 268° West  Level Estimated
08:31AM 71.3518 -3.9499 267° West  Level Estimated
08:32AM 71.3451 -4.3121 267° West  Level Estimated
08:33AM 71.3376 -4.6740 267° West  Level Estimated
08:34AM 71.3295 -5.0356 266° West  Level Estimated
08:35AM 71.3207 -5.3970 266° West  Level Estimated
08:36AM 71.3112 -5.7579 265° West  Level Estimated
08:37AM 71.3011 -6.1185 265° West  Level Estimated
08:38AM 71.2902 -6.4787 265° West  Level Estimated
08:39AM 71.2786 -6.8385 264° West  Level Estimated
08:40AM 71.2664 -7.1979 264° West  Level Estimated
08:41AM 71.2535 -7.5568 264° West  Level Estimated
08:42AM 71.2399 -7.9152 263° West  Level Estimated
08:43AM 71.2256 -8.2731 263° West  Level Estimated
08:44AM 71.2106 -8.6304 263° West  Level Estimated
08:45AM 71.1950 -8.9872 262° West  Level Estimated
08:46AM 71.1786 -9.3434 262° West  Level Estimated
08:47AM 71.1616 -9.6990 262° West  Level Estimated
08:48AM 71.1440 -10.0539 261° West  Level Estimated
08:49AM 71.1256 -10.4082 261° West  Level Estimated
08:50AM 71.1066 -10.7619 261° West  Level Estimated
08:51AM 71.0869 -11.1148 260° West  Level Estimated
08:52AM 71.0666 -11.4670 260° West  Level Estimated
08:53AM 71.0456 -11.8185 260° West  Level Estimated
08:54AM 71.0239 -12.1692 259° West  Level Estimated
08:55AM 71.0016 -12.5192 259° West  Level Estimated
08:56AM 70.9786 -12.8683 259° West  Level Estimated
08:57AM 70.9549 -13.2166 258° West  Level Estimated
08:58AM 70.9307 -13.5641 258° West  Level Estimated
08:59AM 70.9057 -13.9107 258° West  Level Estimated
09:00AM 70.8801 -14.2564 257° West  Level Estimated
09:01AM 70.8539 -14.6012 257° West  Level Estimated
09:02AM 70.8270 -14.9451 257° West  Level Estimated
09:03AM 70.7995 -15.2881 256° West  Level Estimated
09:04AM 70.7714 -15.6301 256° West  Level Estimated
09:05AM 70.7426 -15.9712 256° West  Level Estimated
09:06AM 70.7132 -16.3112 255° West  Level Estimated
09:07AM 70.6831 -16.6502 255° West  Level Estimated
09:08AM 70.6525 -16.9883 255° West  Level Estimated
09:09AM 70.6212 -17.3253 255° West  Level Estimated
09:10AM 70.5893 -17.6612 254° West  Level Estimated
09:11AM 70.5568 -17.9960 254° West  Level Estimated
09:12AM 70.5237 -18.3298 254° West  Level Estimated
09:13AM 70.4899 -18.6625 253° West  Level Estimated
09:14AM 70.4556 -18.9940 253° West  Level Estimated
09:15AM 70.4206 -19.3244 253° West  Level Estimated
09:16AM 70.3851 -19.6537 252° West  Level Estimated
09:17AM 70.3489 -19.9819 252° West  Level Estimated
09:18AM 70.3122 -20.3088 252° West  Level Estimated
09:19AM 70.2749 -20.6346 251° West  Level Estimated
09:20AM 70.2370 -20.9592 251° West  Level Estimated
09:21AM 70.1984 -21.2826 251° West  Level Estimated
09:22AM 70.1594 -21.6048 250° West  Level Estimated
09:23AM 70.1197 -21.9257 250° West  Level Estimated
09:24AM 70.0795 -22.2454 250° West  Level Estimated
09:25AM 70.0387 -22.5639 250° West  Level Estimated
09:26AM 69.9974 -22.8811 249° West  Level Estimated
09:27AM 69.9554 -23.1971 249° West  Level Estimated
09:28AM 69.9130 -23.5118 249° West  Level Estimated
09:29AM 69.8699 -23.8252 248° West  Level Estimated
09:30AM 69.8263 -24.1373 248° West  Level Estimated
09:31AM 69.7822 -24.4481 248° West  Level Estimated
09:32AM 69.7375 -24.7576 247° West  Level Estimated
09:33AM 69.6923 -25.0658 247° West  Level Estimated
09:34AM 69.6465 -25.3727 247° West  Level Estimated
09:35AM 69.6003 -25.6782 247° West  Level Estimated
09:36AM 69.5534 -25.9824 246° West  Level Estimated
09:37AM 69.5061 -26.2853 246° West  Level Estimated
09:38AM 69.4582 -26.5868 246° West  Level Estimated
09:39AM 69.4098 -26.8870 245° Southwest  Level Estimated
09:40AM 69.3609 -27.1859 245° Southwest  Level Estimated
09:41AM 69.3115 -27.4833 245° Southwest  Level Estimated
09:42AM 69.2616 -27.7794 245° Southwest  Level Estimated
09:43AM 69.2112 -28.0742 244° Southwest  Level Estimated
09:44AM 69.1602 -28.3675 244° Southwest  Level Estimated
09:45AM 69.1088 -28.6595 244° Southwest  Level Estimated
09:46AM 69.0569 -28.9502 244° Southwest  Level Estimated
09:47AM 69.0045 -29.2394 243° Southwest  Level Estimated
09:48AM 68.9516 -29.5273 243° Southwest  Level Estimated
09:49AM 68.8982 -29.8137 243° Southwest  Level Estimated
09:50AM 68.8443 -30.0988 242° Southwest  Level Estimated
09:51AM 68.7900 -30.3825 242° Southwest  Level Estimated
09:52AM 68.7352 -30.6649 242° Southwest  Level Estimated
09:53AM 68.6799 -30.9458 242° Southwest  Level Estimated
09:54AM 68.6242 -31.2253 241° Southwest  Level Estimated
09:55AM 68.5680 -31.5035 241° Southwest  Level Estimated
09:56AM 68.5113 -31.7802 241° Southwest  Level Estimated
09:57AM 68.4542 -32.0556 241° Southwest  Level Estimated
09:58AM 68.3967 -32.3295 240° Southwest  Level Estimated
09:59AM 68.3387 -32.6021 240° Southwest  Level Estimated
10:00AM 68.2802 -32.8733 240° Southwest  Level Estimated
10:01AM 68.2213 -33.1431 240° Southwest  Level Estimated
10:02AM 68.1620 -33.4115 239° Southwest  Level Estimated
10:03AM 68.1023 -33.6785 239° Southwest  Level Estimated
10:04AM 68.0421 -33.9441 239° Southwest  Level Estimated
10:05AM 67.9815 -34.2084 239° Southwest  Level Estimated
10:06AM 67.9204 -34.4712 238° Southwest  Level Estimated
10:07AM 67.8590 -34.7327 238° Southwest  Level Estimated
10:08AM 67.7971 -34.9928 238° Southwest  Level Estimated
10:09AM 67.7349 -35.2515 238° Southwest  Level Estimated
10:10AM 67.6722 -35.5089 237° Southwest  Level Estimated
10:11AM 67.6091 -35.7648 237° Southwest  Level Estimated
10:12AM 67.5456 -36.0195 237° Southwest  Level Estimated
10:13AM 67.4818 -36.2727 237° Southwest  Level Estimated
10:14AM 67.4175 -36.5246 236° Southwest  Level Estimated
10:15AM 67.3528 -36.7751 236° Southwest  Level Estimated
10:16AM 67.2878 -37.0243 236° Southwest  Level Estimated
10:17AM 67.2223 -37.2721 236° Southwest  Level Estimated
10:18AM 67.1565 -37.5185 236° Southwest  Level Estimated
10:19AM 67.0903 -37.7636 235° Southwest  Level Estimated
10:20AM 67.0238 -38.0074 235° Southwest  Level Estimated
10:21AM 66.9568 -38.2499 235° Southwest  Level Estimated
10:22AM 66.8895 -38.4910 235° Southwest  Level Estimated
10:23AM 66.8219 -38.7308 234° Southwest  Level Estimated
10:24AM 66.7538 -38.9692 234° Southwest  Level Estimated
10:25AM 66.6854 -39.2063 234° Southwest  Level Estimated
10:26AM 66.6167 -39.4422 234° Southwest  Level Estimated
10:27AM 66.5476 -39.6767 234° Southwest  Level Estimated
10:28AM 66.4782 -39.9099 233° Southwest  Level Estimated
10:29AM 66.4084 -40.1418 233° Southwest  Level Estimated
10:30AM 66.3382 -40.3725 233° Southwest  Level Estimated
10:31AM 66.2678 -40.6018 233° Southwest  Level Estimated
10:32AM 66.1970 -40.8299 232° Southwest  Level Estimated
10:33AM 66.1258 -41.0566 232° Southwest  Level Estimated
10:34AM 66.0544 -41.2822 232° Southwest  Level Estimated
10:35AM 65.9826 -41.5064 232° Southwest  Level Estimated
10:36AM 65.9104 -41.7294 232° Southwest  Level Estimated
10:37AM 65.8380 -41.9511 231° Southwest  Level Estimated
10:38AM 65.7652 -42.1716 231° Southwest  Level Estimated
10:39AM 65.6921 -42.3908 231° Southwest  Level Estimated
10:40AM 65.6188 -42.6088 231° Southwest  Level Estimated
10:41AM 65.5451 -42.8256 231° Southwest  Level Estimated
10:42AM 65.4710 -43.0411 230° Southwest  Level Estimated
10:43AM 65.3967 -43.2554 230° Southwest  Level Estimated
10:44AM 65.3221 -43.4685 230° Southwest  Level Estimated
10:45AM 65.2472 -43.6804 230° Southwest  Level Estimated
10:46AM 65.1720 -43.8911 230° Southwest  Level Estimated
10:47AM 65.0965 -44.1006 229° Southwest  Level Estimated
10:48AM 65.0207 -44.3089 229° Southwest  Level Estimated
10:49AM 64.9446 -44.5161 229° Southwest  Level Estimated
10:50AM 64.8683 -44.7220 229° Southwest  Level Estimated
10:51AM 64.7916 -44.9268 229° Southwest  Level Estimated
10:52AM 64.7147 -45.1305 229° Southwest  Level Estimated
10:53AM 64.6375 -45.3329 228° Southwest  Level Estimated
10:54AM 64.5600 -45.5342 228° Southwest  Level Estimated
10:55AM 64.4822 -45.7344 228° Southwest  Level Estimated
10:56AM 64.4042 -45.9335 228° Southwest  Level Estimated
10:57AM 64.3259 -46.1314 228° Southwest  Level Estimated
10:58AM 64.2474 -46.3282 227° Southwest  Level Estimated
10:59AM 64.1685 -46.5238 227° Southwest  Level Estimated
11:00AM 64.0894 -46.7184 227° Southwest  Level Estimated
11:01AM 64.0101 -46.9118 227° Southwest  Level Estimated
11:02AM 63.9305 -47.1042 227° Southwest  Level Estimated
11:03AM 63.8507 -47.2955 227° Southwest  Level Estimated
11:04AM 63.7706 -47.4856 226° Southwest  Level Estimated
11:05AM 63.6902 -47.6748 226° Southwest  Level Estimated
11:06AM 63.6096 -47.8628 226° Southwest  Level Estimated
11:06AM 63.1970 -49.6040 226° Southwest 407 468 36,000  Level FlightAware
11:07AM 63.5288 -48.0498 226° Southwest  Level Estimated
11:07AM 63.1400 -49.7200 223° Southwest 406 467 36,000  Level FlightAware
11:08AM 63.0890 -49.8230 222° Southwest 409 471 36,000  Level FlightAware
11:08AM 63.0380 -49.9240 222° Southwest 410 472 36,000  Level FlightAware
11:09AM 62.9920 -50.0190 223° Southwest 408 470 36,000  Level FlightAware
11:10AM 62.9140 -50.2150 229° Southwest 407 468 36,000  Level FlightAware
11:10AM 62.8600 -50.3510 229° Southwest 407 468 36,000  Level FlightAware
11:11AM 62.8120 -50.4710 229° Southwest 408 470 36,000  Level FlightAware
11:12AM 62.7220 -50.6910 228° Southwest 408 470 36,000  Level FlightAware
11:13AM 62.6670 -50.8270 229° Southwest 411 473 36,000  Level FlightAware
11:14AM 62.5930 -51.0060 228° Southwest 413 475 36,000  Level FlightAware
11:15AM 62.5120 -51.2010 228° Southwest 416 479 36,000  Level FlightAware
11:16AM 62.4610 -51.3220 228° Southwest 416 479 36,000  Level FlightAware
11:16AM 62.4470 -51.3560 228° Southwest 416 479 36,000  Level FlightAware
11:17AM 62.3480 -51.5880 227° Southwest 416 479 36,000  Level FlightAware
11:18AM 62.2960 -51.7110 228° Southwest 416 479 36,000  Level FlightAware
11:18AM 62.2590 -51.7980 228° Southwest 416 479 36,000  Level FlightAware
11:19AM 62.2220 -51.8820 227° Southwest 414 476 36,000  Level FlightAware
11:19AM 62.1750 -51.9910 227° Southwest 413 475 36,000  Level FlightAware
11:20AM 62.1170 -52.1240 227° Southwest 414 476 36,000  Level FlightAware
11:20AM 62.1010 -52.1610 227° Southwest 416 479 36,000  Level FlightAware
11:22AM 61.9920 -52.4020 226° Southwest 416 479 36,000  Level FlightAware
11:22AM 61.9640 -52.4650 227° Southwest 416 479 36,000  Level FlightAware
11:23AM 61.9230 -52.5550 226° Southwest 416 479 36,000  Level FlightAware
11:24AM 61.8810 -52.6470 226° Southwest 416 479 36,000  Level FlightAware
11:24AM 61.8400 -52.7370 226° Southwest 416 479 36,000  Level FlightAware
11:25AM 61.7990 -52.8270 226° Southwest 416 479 36,000  Level FlightAware
11:25AM 61.7580 -52.9160 226° Southwest 416 479 36,000  Level FlightAware
11:26AM 61.7170 -53.0060 226° Southwest 416 479 36,000  Level FlightAware
11:27AM 61.6760 -53.0950 226° Southwest 416 479 36,000  Level FlightAware
11:27AM 61.6200 -53.2170 226° Southwest 416 479 36,000  Level FlightAware
11:28AM 61.5800 -53.3060 227° Southwest 416 479 36,000  Level FlightAware
11:29AM 61.5390 -53.3950 226° Southwest 416 479 36,000  Level FlightAware
11:29AM 61.4980 -53.4830 226° Southwest 416 479 36,000  Level FlightAware
11:30AM 61.4570 -53.5720 226° Southwest 416 479 36,000  Level FlightAware
11:30AM 61.4290 -53.6310 225° Southwest 416 479 36,000  Level FlightAware
11:33AM 61.2251 -53.9899 220° Southwest  Level Estimated
11:34AM 61.1362 -54.1444 220° Southwest  Level Estimated
11:35AM 61.0471 -54.2981 220° Southwest  Level Estimated
11:36AM 60.9578 -54.4510 220° Southwest  Level Estimated
11:37AM 60.8684 -54.6030 220° Southwest  Level Estimated
11:38AM 60.7787 -54.7541 219° Southwest  Level Estimated
11:39AM 60.6889 -54.9044 219° Southwest  Level Estimated
11:40AM 60.5990 -55.0539 219° Southwest  Level Estimated
11:41AM 60.5088 -55.2025 219° Southwest  Level Estimated
11:42AM 60.4231 -55.3855 227° Southwest  Level FlightAware Approximate
11:43AM 60.3371 -55.5676 226° Southwest  Level FlightAware Approximate
11:44AM 60.2508 -55.7487 226° Southwest  Level FlightAware Approximate
11:45AM 60.1643 -55.9288 226° Southwest  Level FlightAware Approximate
11:46AM 60.0776 -56.1080 226° Southwest  Level FlightAware Approximate
11:47AM 59.9906 -56.2863 226° Southwest  Level FlightAware Approximate
11:48AM 59.9034 -56.4636 226° Southwest  Level FlightAware Approximate
11:49AM 59.8159 -56.6400 225° Southwest  Level FlightAware Approximate
11:50AM 59.7282 -56.8154 225° Southwest  Level FlightAware Approximate
11:51AM 59.6403 -56.9900 225° Southwest  Level FlightAware Approximate
11:52AM 59.5522 -57.1636 225° Southwest  Level FlightAware Approximate
11:53AM 59.4638 -57.3363 225° Southwest  Level FlightAware Approximate
11:54AM 59.3752 -57.5081 225° Southwest  Level FlightAware Approximate
11:55AM 59.2863 -57.6791 225° Southwest  Level FlightAware Approximate
11:56AM 59.1973 -57.8491 224° Southwest  Level FlightAware Approximate
11:57AM 59.1080 -58.0182 224° Southwest  Level FlightAware Approximate
11:58AM 59.0185 -58.1865 224° Southwest  Level FlightAware Approximate
11:59AM 58.9288 -58.3539 224° Southwest  Level FlightAware Approximate
12:00PM 58.8389 -58.5204 224° Southwest  Level FlightAware Approximate
12:01PM 58.7487 -58.6861 224° Southwest  Level FlightAware Approximate
12:02PM 58.6584 -58.8509 224° Southwest  Level FlightAware Approximate
12:03PM 58.5678 -59.0149 223° Southwest  Level FlightAware Approximate
12:04PM 58.4753 -59.1799 221° Southwest  Level FlightAware Approximate
12:05PM 58.3806 -59.3342 221° Southwest  Level FlightAware Approximate
12:06PM 58.2857 -59.4876 220° Southwest  Level FlightAware Approximate
12:07PM 58.1906 -59.6403 220° Southwest  Level FlightAware Approximate
12:08PM 58.0953 -59.7921 220° Southwest  Level FlightAware Approximate
12:09PM 57.9928 -59.9250 215° Southwest  Level Estimated
12:10PM 57.8901 -60.0572 214° Southwest  Level Estimated
12:11PM 57.7872 -60.1886 214° Southwest  Level Estimated
12:12PM 57.6842 -60.3194 214° Southwest  Level Estimated
12:13PM 57.5811 -60.4493 214° Southwest  Level Estimated
12:14PM 57.4778 -60.5786 214° Southwest  Level Estimated
12:15PM 57.3744 -60.7071 214° Southwest  Level Estimated
12:16PM 57.2708 -60.8349 214° Southwest  Level Estimated
12:17PM 57.1672 -60.9619 214° Southwest  Level Estimated
12:18PM 57.0634 -61.0883 214° Southwest  Level Estimated
12:18PM 57.1000 -61.0167 213° Southwest 500 575 38,000  Level Moncton Center
12:19PM 56.9595 -61.2140 213° Southwest  Level Estimated
12:19PM 57.0000 -61.1500 216° Southwest 430 495 38,000  Level Moncton Center
12:20PM 56.8554 -61.3389 213° Southwest  Level Estimated
12:21PM 56.7513 -61.4632 213° Southwest  Level Estimated
12:21PM 56.8000 -61.3833 213° Southwest 430 495 38,000  Level Moncton Center
12:22PM 56.6470 -61.5868 213° Southwest  Level Estimated
12:22PM 56.7333 -61.4333 202° Southwest 430 495 38,000  Level Gander Center
12:23PM 56.5426 -61.7096 213° Southwest  Level Estimated
12:23PM 56.6333 -61.5500 213° Southwest 430 495 38,000  Level Gander Center
12:24PM 56.5333 -61.6833 216° Southwest 430 495 38,000  Level Gander Center
12:25PM 56.4167 -61.8000 209° Southwest 440 506 38,000  Level Gander Center
12:26PM 56.3167 -61.8833 205° Southwest 430 495 38,000  Level Gander Center
12:27PM 56.2167 -61.9667 205° Southwest 440 506 38,000  Level Gander Center
12:28PM 56.1000 -62.0833 209° Southwest 440 506 38,000  Level Gander Center
12:29PM 56.0000 -62.1833 209° Southwest 440 506 38,000  Level Gander Center
12:30PM 55.8833 -62.2667 202° Southwest 440 506 38,000  Level Gander Center
12:31PM 55.7833 -62.3833 213° Southwest 440 506 38,000  Level Gander Center
12:32PM 55.6667 -62.4667 202° Southwest 440 506 38,000  Level Gander Center
12:33PM 55.5667 -62.5833 213° Southwest 440 506 38,000  Level Gander Center
12:34PM 55.4500 -62.6667 202° Southwest 440 506 38,000  Level Gander Center
12:35PM 55.3500 -62.7500 205° Southwest 440 506 38,000  Level Gander Center
12:36PM 55.2333 -62.8667 210° Southwest 440 506 38,000  Level Gander Center
12:37PM 55.1167 -62.9500 202° Southwest 440 506 38,000  Level Gander Center
12:38PM 55.0000 -63.0667 210° Southwest 440 506 38,000  Level Gander Center
12:39PM 54.9000 -63.1500 206° Southwest 440 506 38,000  Level Gander Center
12:40PM 54.7833 -63.2167 198° South 440 506 38,000  Level Gander Center
12:41PM 54.6833 -63.3333 214° Southwest 440 506 38,000  Level Gander Center
12:42PM 54.5667 -63.4167 202° Southwest 440 506 38,000  Level Gander Center
12:43PM 54.4500 -63.5167 206° Southwest 440 506 38,000  Level Gander Center
12:44PM 54.3500 -63.6000 206° Southwest 440 506 38,000  Level Gander Center
12:45PM 54.1833 -63.7333 205° Southwest 440 506 38,000  Level Gander Center
12:46PM 54.0667 -63.8500 210° Southwest 440 506 38,000  Level Gander Center
12:47PM 53.9667 -63.9333 206° Southwest 440 506 38,000  Level Gander Center
12:48PM 53.8500 -64.0000 199° South 450 518 38,000  Level Gander Center
12:49PM 53.7333 -64.1000 207° Southwest 440 506 38,000  Level Gander Center
12:50PM 53.6333 -64.1833 206° Southwest 450 518 38,000  Level Gander Center
12:51PM 53.5167 -64.2833 207° Southwest 440 506 38,000  Level Gander Center
12:52PM 53.4000 -64.4000 211° Southwest 440 506 38,000  Level Gander Center
12:53PM 53.3000 -64.4667 202° Southwest 430 495 38,000  Level Gander Center
12:54PM 53.2000 -64.5833 215° Southwest 440 506 38,000  Level Gander Center
12:55PM 53.1000 -64.6833 211° Southwest 430 495 38,000  Level Gander Center
12:56PM 53.0000 -64.7500 202° Southwest 430 495 38,000  Level Gander Center
12:57PM 52.8833 -64.8500 207° Southwest 430 495 38,000  Level Gander Center
12:58PM 52.7667 -64.9667 211° Southwest 430 495 38,000  Level Gander Center
12:59PM 52.6667 -65.0333 202° Southwest 430 495 38,000  Level Gander Center
01:00PM 52.5667 -65.1333 211° Southwest 430 495 38,000  Level Gander Center
01:01PM 52.4667 -65.2333 211° Southwest 430 495 38,000  Level Gander Center
01:02PM 52.3667 -65.3000 202° Southwest 440 506 38,000  Level Gander Center
01:03PM 52.2333 -65.4000 205° Southwest 440 506 38,000  Level Gander Center
01:04PM 52.1333 -65.5000 212° Southwest 440 506 38,000  Level Gander Center
01:05PM 52.0333 -65.6000 212° Southwest 440 506 38,000  Level Moncton Center
01:06PM 51.9167 -65.6667 199° South 440 506 38,000  Level Moncton Center
01:07PM 51.8000 -65.7500 204° Southwest 450 518 38,000  Level Moncton Center
01:08PM 51.6833 -65.7667 185° South 450 518 38,000  Level Moncton Center
01:09PM 51.5333 -65.8167 192° South 450 518 38,000  Level Moncton Center
01:10PM 51.4167 -65.8667 195° South 450 518 38,000  Level Moncton Center
01:11PM 51.3000 -65.9167 195° South 450 518 38,000  Level Moncton Center
01:12PM 51.1833 -65.9500 190° South 450 518 38,000  Level Moncton Center
01:13PM 51.0500 -66.0000 193° South 450 518 38,000  Level Moncton Center
01:18PM 50.4560 -66.2010 193° South 450 518 38,000  Level FlightAware
01:19PM 50.3790 -66.2250 191° South 450 518 38,000  Level FlightAware
01:19PM 50.2990 -66.2520 192° South 449 517 38,000  Level FlightAware
01:21PM 50.1410 -66.3240 196° South 441 507 38,000  Level FlightAware
01:21PM 50.0720 -66.3650 201° Southwest 440 506 38,000  Level FlightAware
01:22PM 50.0000 -66.4050 200° South 440 506 38,000  Level FlightAware
01:22PM 49.9420 -66.4370 200° South 440 506 38,000  Level FlightAware
01:24PM 49.8150 -66.5080 200° South 441 507 38,000  Level FlightAware
01:24PM 49.7600 -66.5390 200° South 443 510 38,000  Level FlightAware
01:25PM 49.6960 -66.5740 199° South 443 510 38,000  Level FlightAware
01:25PM 49.6200 -66.6160 200° South 442 509 38,000  Level FlightAware
01:26PM 49.5590 -66.6500 200° South 440 506 38,000  Level FlightAware
01:26PM 49.4970 -66.6840 200° South 439 505 38,000  Level FlightAware
01:27PM 49.4400 -66.7150 199° South 438 504 38,000  Level FlightAware
01:28PM 49.3610 -66.7580 200° South 438 504 38,000  Level FlightAware
01:28PM 49.2940 -66.7940 199° South 439 505 38,000  Level FlightAware
01:29PM 49.2360 -66.8260 200° South 440 506 38,000  Level FlightAware
01:29PM 49.1610 -66.8670 200° South 440 506 38,000  Level FlightAware
01:30PM 49.0930 -66.9040 200° South 441 507 38,000  Level FlightAware
01:31PM 49.0180 -66.9440 199° South 440 506 38,000  Level FlightAware
01:31PM 48.9720 -66.9680 199° South 440 506 38,000  Level FlightAware
01:32PM 48.8260 -67.0460 199° South 438 504 38,000  Level FlightAware
01:33PM 48.7560 -67.0840 200° South 437 503 38,000  Level FlightAware
01:33PM 48.6870 -67.1200 199° South 436 502 38,000  Level FlightAware
01:34PM 48.6170 -67.1580 200° South 436 502 38,000  Level FlightAware
01:35PM 48.4890 -67.2250 199° South 435 501 38,000  Level FlightAware
01:36PM 48.4020 -67.2700 199° South 438 504 38,000  Level FlightAware
01:36PM 48.3400 -67.3030 199° South 440 506 38,000  Level FlightAware
01:37PM 48.2750 -67.3370 199° South 441 507 38,000  Level FlightAware
01:38PM 48.2070 -67.3720 199° South 440 506 38,000  Level FlightAware
01:39PM 48.0780 -67.4390 199° South 440 506 38,000  Level FlightAware
01:40PM 47.9410 -67.5100 199° South 439 505 38,000  Level FlightAware
01:40PM 47.8760 -67.5420 198° South 438 504 38,000  Level FlightAware
01:41PM 47.8170 -67.5730 199° South 438 504 38,000  Level FlightAware
01:42PM 47.8190 -67.5720 19° North 438 504 38,000  Level FlightAware
01:43PM 47.6222 -67.6719 199° South 432 497 38,000  Level FlightAware ADS-B (CYSG)
01:43PM 47.5342 -67.7166 199° South 435 501 38,000  Level FlightAware ADS-B (CYSG)
01:44PM 47.4350 -67.7660 199° South 438 504 38,000  Level FlightAware
01:45PM 47.3340 -67.8150 198° South 438 504 38,000  Level FlightAware
01:46PM 47.2500 -67.8590 200° South 444 511 38,000  Level FlightAware
01:47PM 47.1740 -67.8970 199° South 443 510 38,000  Level FlightAware
01:48PM 47.0620 -67.9530 199° South 445 512 38,000  Level FlightAware
01:49PM 46.9460 -68.0100 199° South 446 513 38,000  Level FlightAware
01:49PM 46.8820 -68.0420 199° South 445 512 38,000  Level FlightAware
01:50PM 46.8180 -68.0730 198° South 445 512 38,000  Level FlightAware
01:50PM 46.7430 -68.1100 199° South 445 512 38,000  Level FlightAware
01:51PM 46.6690 -68.1400 196° South 446 513 38,000  Level FlightAware
01:51PM 46.6060 -68.1650 195° South 448 516 38,000  Level FlightAware
01:52PM 46.5360 -68.1940 196° South 449 517 38,000  Level FlightAware
01:53PM 46.4750 -68.2190 196° South 450 518 38,000  Level FlightAware
01:53PM 46.3580 -68.2670 196° South 448 516 38,000  Level FlightAware
01:54PM 46.2600 -68.3070 196° South 446 513 38,000  Level FlightAware
01:55PM 46.1555 -68.3503 196° South 448 516 38,000  Level FlightAware ADS-B (CYSG)
01:56PM 46.1300 -68.3608 196° South 450 518 38,000  Level FlightAware ADS-B (CYSG)
01:56PM 46.0279 -68.4024 196° South 450 518 38,000  Level FlightAware ADS-B (CYSG)
01:57PM 45.9454 -68.4360 196° South 451 519 38,000  Level FlightAware ADS-B (CYSG)
01:58PM 45.8192 -68.4869 196° South 451 519 38,000  Level FlightAware ADS-B (CYSG)
01:59PM 45.7365 -68.5202 196° South 453 521 38,000  Level FlightAware ADS-B (KBGR)
01:59PM 45.6530 -68.5538 196° South 455 524 38,000  Level FlightAware ADS-B (KBGR)
02:00PM 45.5776 -68.5840 196° South 453 521 38,000  Level FlightAware ADS-B (KBGR)
02:01PM 45.4883 -68.6197 196° South 452 520 38,000  Level FlightAware ADS-B (CYSG)
02:01PM 45.4153 -68.6487 196° South 453 521 38,000  Level FlightAware ADS-B (CYSG)
02:02PM 45.3428 -68.6774 196° South 452 520 38,000  Level FlightAware ADS-B (CYQI)
02:02PM 45.2798 -68.7023 196° South 453 521 38,000  Level FlightAware ADS-B (CYSG)
02:03PM 45.2310 -68.7216 196° South 457 526 38,000  Level FlightAware ADS-B (CYSG)
02:03PM 45.1540 -68.7519 196° South 460 529 38,000  Level FlightAware ADS-B (KBGR)
02:04PM 45.0909 -68.7767 195° South 463 533 38,000  Level FlightAware ADS-B (KBGR)
02:05PM 45.0299 -68.8007 196° South 465 535 38,000  Level FlightAware ADS-B (KBGR)
02:05PM 44.9418 -68.8352 196° South 469 540 38,000  Level FlightAware ADS-B (CYQI)
02:06PM 44.8879 -68.8563 195° South 470 541 38,000  Level FlightAware ADS-B (CYSG)
02:06PM 44.8144 -68.8923 199° South 464 534 38,000  Level FlightAware ADS-B (CYQI)
02:07PM 44.7542 -68.9325 205° Southwest 459 528 38,000  Level FlightAware ADS-B (KBGR)
02:07PM 44.6984 -68.9717 207° Southwest 458 527 38,000  Level FlightAware ADS-B (KBGR)
02:08PM 44.6340 -69.0161 206° Southwest 458 527 38,000  Level FlightAware ADS-B (CYSG)
02:08PM 44.5707 -69.0591 206° Southwest 458 527 38,000  Level FlightAware ADS-B (KBGR)
02:09PM 44.5084 -69.1013 206° Southwest 459 528 38,000  Level FlightAware ADS-B (KBGR)
02:09PM 44.4490 -69.1414 206° Southwest 460 529 38,000  Level FlightAware ADS-B (CYSG)
02:10PM 44.3752 -69.1912 206° Southwest 458 527 38,000  Level FlightAware ADS-B (CYSG)
02:11PM 44.2614 -69.2676 206° Southwest 456 525 38,000  Level FlightAware ADS-B (CYSG)
02:12PM 44.1809 -69.3216 206° Southwest 449 517 38,000  Level FlightAware ADS-B
02:12PM 44.1828 -69.3203 26° Northeast 456 525 38,000  Level FlightAware ADS-B (KBGR)
02:12PM 44.1015 -69.3744 206° Southwest 455 524 38,000  Level FlightAware ADS-B (CYQI)
02:13PM 44.0463 -69.4111 206° Southwest 445 512 38,000  Level FlightAware ADS-B
02:13PM 43.9921 -69.4471 206° Southwest 450 518 38,000  Level FlightAware ADS-B
02:14PM 43.9350 -69.4850 206° Southwest 448 516 38,000  Level FlightAware ADS-B
02:15PM 43.8360 -69.5505 206° Southwest 446 513 38,000  Level FlightAware ADS-B (CYQI)
02:15PM 43.7681 -69.5953 205° Southwest 446 513 38,000  Level FlightAware ADS-B (CYQI)
02:16PM 43.6947 -69.6435 205° Southwest 446 513 38,000  Level FlightAware ADS-B
02:17PM 43.6018 -69.7044 205° Southwest 444 511 38,000  Level FlightAware ADS-B
02:18PM 43.5249 -69.7547 205° Southwest 445 512 38,000  Level FlightAware ADS-B
02:18PM 43.5182 -69.7590 205° Southwest 454 522 38,000  Level FlightAware ADS-B (CYQI)
02:18PM 43.4285 -69.8103 203° Southwest 454 522 38,000  Level FlightAware ADS-B
02:19PM 43.3616 -69.8347 195° South 468 539 38,000  Level FlightAware ADS-B (CYQI)
02:19PM 43.3275 -69.8438 191° South 469 540 38,000  Level FlightAware ADS-B
02:20PM 43.2550 -69.8559 187° South 473 544 38,000  Level FlightAware ADS-B
02:20PM 43.2251 -69.8611 187° South 478 550 38,000  Level FlightAware ADS-B
02:21PM 43.0911 -69.8833 187° South 472 543 38,000  Level FlightAware ADS-B
02:22PM 43.0166 -69.8943 186° South 473 544 38,000  Level FlightAware ADS-B
02:22PM 42.9419 -69.9051 186° South 483 556 38,000  Level FlightAware ADS-B
02:23PM 42.8688 -69.9156 186° South 472 543 38,000  Level FlightAware ADS-B
02:23PM 42.8014 -69.9254 186° South 472 543 38,000  Level FlightAware ADS-B
02:24PM 42.7136 -69.9380 186° South 472 543 38,000  Level FlightAware ADS-B
02:25PM 42.6239 -69.9511 186° South 483 556 38,000  Level FlightAware ADS-B
02:25PM 42.5154 -69.9666 186° South 487 560 38,000  Level FlightAware ADS-B
02:26PM 42.4429 -69.9769 186° South 487 560 38,000  Level FlightAware ADS-B
02:27PM 42.3530 -69.9898 186° South 489 563 38,000  Level FlightAware ADS-B
02:27PM 42.2833 -69.9997 186° South 483 556 38,000  Level FlightAware ADS-B
02:27PM 42.2641 -70.0024 186° South 490 564 38,000  Level FlightAware ADS-B
02:28PM 42.1877 -70.0201 190° South 478 550 38,000  Level FlightAware ADS-B
02:28PM 42.1312 -70.0417 196° South 470 541 38,000  Level FlightAware ADS-B
02:29PM 42.0574 -70.0811 202° Southwest 462 532 38,000  Level FlightAware ADS-B
02:29PM 42.0265 -70.1020 207° Southwest 458 527 38,000  Level FlightAware ADS-B
02:30PM 41.9691 -70.1481 211° Southwest 447 514 38,000  Level FlightAware ADS-B
02:30PM 41.9017 -70.2175 217° Southwest 437 503 38,000  Level FlightAware ADS-B
02:31PM 41.8882 -70.2336 222° Southwest 435 501 38,000  Level FlightAware ADS-B
02:31PM 41.8273 -70.3179 226° Southwest 428 493 38,000  Level FlightAware ADS-B
02:31PM 41.8170 -70.3329 227° Southwest 428 493 38,000  Level FlightAware ADS-B
02:32PM 41.7992 -70.3586 227° Southwest 427 491 38,000  Level FlightAware ADS-B
02:32PM 41.7510 -70.4277 227° Southwest 427 491 38,000  Level FlightAware ADS-B
02:33PM 41.7033 -70.4970 227° Southwest 428 493 38,000  Level FlightAware ADS-B
02:33PM 41.6526 -70.5704 227° Southwest 429 494 38,000  Level FlightAware ADS-B
02:34PM 41.6434 -70.5836 227° Southwest 429 494 38,000  Level FlightAware ADS-B
02:34PM 41.5934 -70.6560 227° Southwest 427 491 38,000  Level FlightAware ADS-B
02:35PM 41.5529 -70.7143 227° Southwest 425 489 38,000  Level FlightAware ADS-B
02:35PM 41.5141 -70.7699 227° Southwest 426 490 38,000  Level FlightAware ADS-B
02:36PM 41.4646 -70.8414 227° Southwest 426 490 38,000  Level FlightAware ADS-B
02:36PM 41.4156 -70.9116 227° Southwest 427 491 38,000  Level FlightAware ADS-B
02:37PM 41.3695 -70.9775 227° Southwest 426 490 38,000  Level FlightAware ADS-B
02:37PM 41.3292 -71.0349 227° Southwest 425 489 38,000  Level FlightAware ADS-B
02:38PM 41.3048 -71.0705 228° Southwest 415 478 38,000  Level FlightAware ADS-B
02:39PM 41.2507 -71.1724 235° Southwest 404 465 38,000  Level FlightAware ADS-B
02:39PM 41.2353 -71.2120 243° Southwest 394 453 38,000  Level FlightAware ADS-B
02:39PM 41.2189 -71.2642 247° West 387 445 38,000  Level FlightAware ADS-B
02:40PM 41.2008 -71.3306 250° West 384 442 38,000  Level FlightAware ADS-B
02:40PM 41.1823 -71.3967 250° West 382 440 38,000  Level FlightAware ADS-B
02:41PM 41.1643 -71.4603 249° West 382 440 38,000  Level FlightAware ADS-B
02:41PM 41.1428 -71.5368 250° West 383 441 38,000  Level FlightAware ADS-B
02:42PM 41.1212 -71.6130 249° West 383 441 38,000  Level FlightAware ADS-B
02:43PM 41.1020 -71.6807 249° West 382 440 38,000  Level FlightAware ADS-B (KSNC)
02:43PM 41.0739 -71.7794 249° West 383 441 38,000  Level FlightAware ADS-B
02:44PM 41.0546 -71.8469 249° West 382 440 38,000  Level FlightAware ADS-B
02:44PM 41.0358 -71.9125 249° West 382 440 38,000  Level FlightAware ADS-B
02:44PM 41.0293 -71.9349 249° West 382 440 38,000  Level FlightAware ADS-B (KSNC)
02:45PM 41.0144 -71.9718 242° Southwest 400 460 38,000  Level FlightAware ADS-B
02:45PM 40.9944 -72.0022 229° Southwest 415 478 38,000  Level FlightAware ADS-B
02:46PM 40.9452 -72.0620 223° Southwest 415 478 38,000  Level FlightAware ADS-B (KSNC)
02:46PM 40.9003 -72.1168 223° Southwest 414 476 38,000  Level FlightAware ADS-B
02:47PM 40.8551 -72.1719 223° Southwest 413 475 38,000  Level FlightAware ADS-B (KSNC)
02:47PM 40.7854 -72.2577 223° Southwest 410 472 38,000  Level FlightAware ADS-B (KSNC)
02:48PM 40.7430 -72.3107 223° Southwest 411 473 38,000  Level FlightAware ADS-B (KSNC)
02:48PM 40.6994 -72.3649 223° Southwest 411 473 38,000  Level FlightAware ADS-B (KSNC)
02:49PM 40.6475 -72.4291 223° Southwest 412 474 38,000  Level FlightAware ADS-B (KSNC)
02:50PM 40.6084 -72.4775 223° Southwest 413 475 38,000  Level FlightAware ADS-B (KSNC)
02:50PM 40.5642 -72.5318 223° Southwest 413 475 38,000  Level FlightAware ADS-B (KSNC)
02:51PM 40.4947 -72.6171 223° Southwest 413 475 38,000  Level FlightAware ADS-B (KSNC)
02:51PM 40.4520 -72.6695 223° Southwest 411 473 38,000  Level FlightAware ADS-B (KSNC)
02:52PM 40.4210 -72.7075 223° Southwest 405 466 38,000  Level FlightAware ADS-B (KWWD)
02:52PM 40.3674 -72.7730 223° Southwest 405 466 38,000  Level FlightAware ADS-B (KWWD)
02:53PM 40.3212 -72.8292 223° Southwest 410 472 38,000  Level FlightAware ADS-B (KSNC)
02:54PM 40.2743 -72.8863 223° Southwest 404 465 38,000  Level FlightAware ADS-B (KWWD)
02:54PM 40.2475 -72.9189 223° Southwest 402 463 38,000  Level FlightAware ADS-B (KWWD)
02:54PM 40.2451 -72.9218 223° Southwest 408 470 38,000  Level FlightAware ADS-B (KSNC)
02:54PM 40.2212 -72.9509 223° Southwest 410 472 38,000  Level FlightAware ADS-B (KSNC)
02:54PM 40.2014 -72.9749 223° Southwest 405 466 38,000  Level FlightAware ADS-B (KWWD)
02:55PM 40.1824 -72.9980 223° Southwest 411 473 38,000  Level FlightAware ADS-B (KSNC)
02:55PM 40.1175 -73.0764 223° Southwest 413 475 38,000  Level FlightAware ADS-B (KSNC)
02:56PM 40.0579 -73.1480 223° Southwest 414 476 38,000  Level FlightAware ADS-B (KWWD)
02:57PM 40.0083 -73.1965 217° Southwest 430 495 38,000  Level FlightAware ADS-B (KWWD)
02:57PM 39.9462 -73.2524 215° Southwest 431 496 38,000  Level FlightAware ADS-B (KSNC)
02:58PM 39.8949 -73.2987 215° Southwest 430 495 38,000  Level FlightAware ADS-B (KSNC)
02:58PM 39.8368 -73.3511 215° Southwest 430 495 38,000  Level FlightAware ADS-B (KWWD)
02:59PM 39.7798 -73.4025 215° Southwest 428 493 38,000  Level FlightAware ADS-B (KSNC)
03:00PM 39.7146 -73.4610 215° Southwest 428 493 38,000  Level FlightAware ADS-B (KWWD)
03:00PM 39.6656 -73.5051 215° Southwest 418 481 38,000  Level FlightAware ADS-B (KWWD)
03:01PM 39.6148 -73.5506 215° Southwest 423 487 38,000  Level FlightAware ADS-B (KSNC)
03:01PM 39.5644 -73.5956 215° Southwest 422 486 38,000  Level FlightAware ADS-B (KSNC)
03:02PM 39.5063 -73.6475 215° Southwest 415 478 38,000  Level FlightAware ADS-B (KWWD)
03:02PM 39.4470 -73.7002 214° Southwest 415 478 38,000  Level FlightAware ADS-B (KWWD)
03:03PM 39.3958 -73.7457 215° Southwest 414 476 38,000  Level FlightAware ADS-B (KWWD)
03:04PM 39.3468 -73.7893 214° Southwest 412 474 38,000  Level FlightAware ADS-B (KWWD)
03:04PM 39.2831 -73.8455 214° Southwest 411 473 38,000  Level FlightAware ADS-B (KWWD)
03:05PM 39.2340 -73.8891 214° Southwest 410 472 38,000  Level FlightAware ADS-B (KWWD)
03:05PM 39.1872 -73.9304 214° Southwest 410 472 38,000  Level FlightAware ADS-B (KWWD)
03:06PM 39.1379 -73.9738 214° Southwest 410 472 38,000  Level FlightAware ADS-B (KWWD)
03:06PM 39.0908 -74.0153 214° Southwest 409 471 38,000  Level FlightAware ADS-B (KWWD)
03:07PM 39.0424 -74.0578 214° Southwest 410 472 38,000  Level FlightAware ADS-B (KWWD)
03:07PM 38.9789 -74.1134 214° Southwest 410 472 38,000  Level FlightAware ADS-B (KWWD)
03:08PM 38.9168 -74.1678 214° Southwest 410 472 38,000  Level FlightAware ADS-B (KWWD)
03:09PM 38.8686 -74.2100 214° Southwest 410 472 38,000  Level FlightAware ADS-B (KWWD)
03:09PM 38.8049 -74.2655 214° Southwest 411 473 38,000  Level FlightAware ADS-B (KWWD)
03:10PM 38.7408 -74.3213 214° Southwest 412 474 38,000  Level FlightAware ADS-B (KWWD)
03:11PM 38.6779 -74.3758 214° Southwest 412 474 38,000  Level FlightAware ADS-B (KWWD)
03:11PM 38.6141 -74.4310 214° Southwest 411 473 38,000  Level FlightAware ADS-B (KWWD)
03:12PM 38.5649 -74.4734 214° Southwest 411 473 38,000  Level FlightAware ADS-B (KWWD)
03:12PM 38.5683 -74.4705 34° Northeast 417 480 38,000  Level FlightAware ADS-B (KSBY)
03:13PM 38.4621 -74.5621 214° Southwest 418 481 38,000  Level FlightAware ADS-B (KSBY)
03:14PM 38.3879 -74.6258 214° Southwest 414 476 38,000  Level FlightAware ADS-B (KWWD)
03:14PM 38.3391 -74.6676 214° Southwest 414 476 38,000  Level FlightAware ADS-B (KWWD)
03:15PM 38.2906 -74.7092 214° Southwest 414 476 38,000  Level FlightAware ADS-B (KWWD)
03:15PM 38.2410 -74.7516 214° Southwest 413 475 38,000  Level FlightAware ADS-B (KWWD)
03:16PM 38.1806 -74.8032 214° Southwest 413 475 38,000  Level FlightAware ADS-B (KWWD)
03:16PM 38.1266 -74.8489 214° Southwest 413 475 38,000  Level FlightAware ADS-B (KWWD)
03:17PM 38.0998 -74.8716 214° Southwest 420 483 38,000  Level FlightAware ADS-B (KSBY)
03:17PM 38.0474 -74.9164 214° Southwest 413 475 38,000  Level FlightAware ADS-B (KWWD)
03:17PM 38.0076 -74.9502 214° Southwest 413 475 38,000  Level FlightAware ADS-B (KWWD)
03:18PM 37.9516 -74.9977 214° Southwest 413 475 38,000  Level FlightAware ADS-B (KWWD)
03:19PM 37.8870 -75.0522 214° Southwest 412 474 38,000  Level FlightAware ADS-B (KWWD)
03:19PM 37.8371 -75.0942 214° Southwest 420 483 38,000  Level FlightAware ADS-B (KSBY)
03:20PM 37.7865 -75.1368 214° Southwest 420 483 38,000  Level FlightAware ADS-B (KSBY)
03:20PM 37.7295 -75.1846 214° Southwest 414 476 38,000  Level FlightAware ADS-B (KWWD)
03:21PM 37.6787 -75.2273 214° Southwest 422 486 38,000  Level FlightAware ADS-B (KWWD)
03:22PM 37.6154 -75.2803 214° Southwest 414 476 38,000  Level FlightAware ADS-B (KWWD)
03:22PM 37.5472 -75.3372 214° Southwest 414 476 38,000  Level FlightAware ADS-B (KWWD)
03:23PM 37.4835 -75.3904 214° Southwest 422 486 38,000  Level FlightAware ADS-B (KWWD)
03:23PM 37.4335 -75.4319 213° Southwest 422 486 38,000  Level FlightAware ADS-B (KWWD)
03:24PM 37.3840 -75.4730 213° Southwest 421 484 38,000  Level FlightAware ADS-B (KWWD)
03:25PM 37.3170 -75.5285 213° Southwest 413 475 38,000  Level FlightAware ADS-B (KWWD)
03:25PM 37.2550 -75.5798 213° Southwest 411 473 38,000  Level FlightAware ADS-B (KWWD)
03:26PM 37.2047 -75.6215 213° Southwest 411 473 38,000  Level FlightAware ADS-B (KWWD)
03:27PM 37.1189 -75.6921 213° Southwest 419 482 38,000  Level FlightAware ADS-B (KWWD)
03:27PM 37.0651 -75.7363 213° Southwest 411 473 38,000  Level FlightAware ADS-B (KWWD)
03:28PM 37.0010 -75.7888 213° Southwest 414 476 38,000  Level FlightAware ADS-B (KWWD)
03:28PM 36.9439 -75.8221 205° Southwest 433 498 38,000  Level FlightAware ADS-B (KWWD)
03:29PM 36.8930 -75.8490 203° Southwest 424 488 38,000  Level FlightAware
03:30PM 36.7495 -75.9238 203° Southwest 434 499 38,000  Level FlightAware ADS-B (KWWD)
03:31PM 36.6830 -75.9570 202° Southwest 434 499 38,000  Level FlightAware
03:31PM 36.6010 -76.0020 204° Southwest 437 503 38,000  Level FlightAware
03:32PM 36.5420 -76.0310 202° Southwest 437 503 38,000  Level FlightAware
03:33PM 36.4450 -76.0800 202° Southwest 437 503 38,000  Level FlightAware
03:34PM 36.3860 -76.1100 202° Southwest 437 503 38,000  Level FlightAware
03:34PM 36.3480 -76.1290 202° Southwest 437 503 38,000  Level FlightAware
03:35PM 36.1502 -76.2370 204° Southwest 438 504 38,000  Level FlightAware ADS-B (KWWD)
03:38PM 35.8120 -76.4110 203° Southwest 442 509 38,000  Level FlightAware
03:39PM 35.7140 -76.4600 202° Southwest 442 509 38,000  Level FlightAware
03:40PM 35.6720 -76.4810 202° Southwest 442 509 38,000  Level FlightAware
03:40PM 35.6320 -76.5010 202° Southwest 442 509 38,000  Level FlightAware
03:41PM 35.5710 -76.5310 202° Southwest 442 509 38,000  Level FlightAware
03:42PM 35.4670 -76.5880 204° Southwest 438 504 38,000  Level FlightAware
03:42PM 35.3960 -76.6240 202° Southwest 437 503 38,000  Level FlightAware
03:43PM 35.3420 -76.6510 202° Southwest 436 502 38,000  Level FlightAware
03:43PM 35.2600 -76.6920 202° Southwest 437 503 38,000  Level FlightAware
03:44PM 35.2010 -76.7230 203° Southwest 438 504 38,000  Level FlightAware
03:44PM 35.1350 -76.7560 202° Southwest 439 505 38,000  Level FlightAware
03:45PM 35.0210 -76.8130 202° Southwest 439 505 38,000  Level FlightAware
03:46PM 34.9110 -76.8680 202° Southwest 439 505 38,000  Level FlightAware
03:47PM 34.8460 -76.9000 202° Southwest 438 504 38,000  Level FlightAware
03:48PM 34.7910 -76.9280 203° Southwest 438 504 38,000  Level FlightAware
03:49PM 34.6710 -76.9880 202° Southwest 438 504 38,000  Level FlightAware
03:49PM 34.5980 -77.0240 202° Southwest 439 505 38,000  Level FlightAware
03:50PM 34.5240 -77.0610 202° Southwest 439 505 38,000  Level FlightAware
03:51PM 34.4050 -77.1200 202° Southwest 439 505 38,000  Level FlightAware
03:52PM 34.3370 -77.1530 202° Southwest 440 506 38,000  Level FlightAware
03:52PM 34.2830 -77.1800 202° Southwest 440 506 38,000  Level FlightAware
03:53PM 34.2200 -77.2110 202° Southwest 441 507 38,000  Level FlightAware
03:53PM 34.1590 -77.2410 202° Southwest 444 511 38,000  Level FlightAware
03:54PM 34.0940 -77.2730 202° Southwest 444 511 38,000  Level FlightAware
03:55PM 33.9860 -77.3260 202° Southwest 443 510 38,000  Level FlightAware
03:55PM 33.9290 -77.3540 202° Southwest 443 510 38,000  Level FlightAware
03:56PM 33.8230 -77.4050 202° Southwest 442 509 38,000  Level FlightAware
03:57PM 33.7650 -77.4340 203° Southwest 442 509 38,000  Level FlightAware
03:57PM 33.7030 -77.4640 202° Southwest 442 509 38,000  Level FlightAware
03:58PM 33.5930 -77.5170 202° Southwest 443 510 38,000  Level FlightAware
04:00PM 33.4430 -77.5890 202° Southwest 442 509 38,000  Level FlightAware
04:00PM 33.3830 -77.6180 202° Southwest 442 509 38,000  Level FlightAware
04:01PM 33.2710 -77.6670 200° South 445 512 38,000  Level FlightAware
04:02PM 33.1730 -77.7100 200° South 445 512 38,000  Level FlightAware
04:03PM 33.1130 -77.7360 200° South 445 512 38,000  Level FlightAware
04:04PM 33.0540 -77.7620 200° South 445 512 38,000  Level FlightAware
04:04PM 33.0150 -77.7790 200° South 445 512 38,000  Level FlightAware
04:05PM 32.9540 -77.8050 200° South 445 512 38,000  Level FlightAware
04:05PM 32.8980 -77.8300 201° Southwest 445 512 38,000  Level FlightAware
04:06PM 32.8390 -77.8550 200° South 445 512 38,000  Level FlightAware
04:06PM 32.7780 -77.8820 200° South 445 512 38,000  Level FlightAware
04:08PM 32.4406 -77.8739 200° South 473 544 38,000  Level Jacksonville Center
04:09PM 32.3169 -77.9100 194° South 473 544 38,000  Level Jacksonville Center
04:10PM 32.2022 -77.9678 203° Southwest 458 527 38,000  Level Jacksonville Center
04:11PM 32.0853 -78.0208 201° Southwest 452 520 38,000  Level Jacksonville Center
04:12PM 31.9683 -78.0711 200° South 452 520 38,000  Level Jacksonville Center
04:13PM 31.8494 -78.1261 201° Southwest 457 526 38,000  Level Jacksonville Center
04:14PM 31.7300 -78.1739 199° South 457 526 38,000  Level Jacksonville Center
04:15PM 31.6114 -78.2358 204° Southwest 463 533 38,000  Level Jacksonville Center
04:16PM 31.4922 -78.2881 200° South 463 533 38,000  Level Jacksonville Center
04:17PM 31.3750 -78.3403 201° Southwest 463 533 38,000  Level Jacksonville Center
04:18PM 31.2539 -78.3969 202° Southwest 463 533 38,000  Level Jacksonville Center
04:19PM 31.1367 -78.4464 200° South 463 533 38,000  Level Jacksonville Center
04:20PM 31.0172 -78.4981 200° South 463 533 38,000  Level Jacksonville Center
04:21PM 30.8981 -78.5519 201° Southwest 463 533 38,000  Level Jacksonville Center
04:22PM 30.7767 -78.6011 199° South 463 533 38,000  Level Jacksonville Center
04:24PM 30.5289 -78.7119 201° Southwest 470 541 38,000  Level Miami Center
04:25PM 30.4197 -78.7606 201° Southwest 465 535 38,000  Level Miami Center
04:26PM 30.2919 -78.8133 200° South 470 541 38,000  Level Miami Center
04:27PM 30.1725 -78.8664 201° Southwest 476 548 38,000  Level Miami Center
04:28PM 30.0528 -78.9194 201° Southwest 468 539 38,000  Level Miami Center
04:29PM 29.9331 -78.9744 202° Southwest 468 539 38,000  Level Miami Center
04:30PM 29.8072 -79.0317 202° Southwest 473 544 38,000  Level Miami Center
04:31PM 29.6833 -79.0819 199° South 473 544 38,000  Level Miami Center
04:32PM 29.5597 -79.1294 198° South 472 543 38,000  Level Miami Center
04:33PM 29.4378 -79.1817 200° South 472 543 38,000  Level Miami Center
04:38PM 28.8360 -79.4340 200° South 466 536 38,000  Level FlightAware
04:38PM 28.8290 -79.4370 201° Southwest 466 536 38,000  Level FlightAware
04:39PM 28.7430 -79.4730 200° South 466 536 38,000  Level FlightAware
04:39PM 28.6400 -79.5150 200° South 465 535 38,000  Level FlightAware
04:40PM 28.5120 -79.5690 200° South 463 533 38,000  Level FlightAware
04:41PM 28.3950 -79.6180 200° South 465 535 38,000  Level FlightAware
04:42PM 28.2720 -79.6690 200° South 467 537 38,000  Level FlightAware
04:43PM 28.1560 -79.7170 200° South 469 540 38,000  Level FlightAware
04:44PM 28.0530 -79.7600 200° South 468 539 38,000  Level FlightAware
04:45PM 27.9350 -79.8080 200° South 468 539 38,000  Level FlightAware
04:46PM 27.8210 -79.8550 200° South 468 539 38,000  Level FlightAware
04:47PM 27.7460 -79.8860 200° South 468 539 38,000  Level FlightAware
04:48PM 27.6350 -79.9310 200° South 470 541 38,000  Level FlightAware
04:48PM 27.5870 -79.9510 200° South 470 541 38,000  Level FlightAware
04:49PM 27.4670 -80.0000 200° South 471 542 38,000  Level FlightAware
04:49PM 27.4170 -80.0200 200° South 471 542 38,000  Level FlightAware
04:50PM 27.3550 -80.0460 200° South 472 543 38,000  Level FlightAware
04:51PM 27.2380 -80.0930 200° South 472 543 38,000  Level FlightAware
04:51PM 27.1470 -80.1300 200° South 472 543 38,000  Level FlightAware
04:52PM 27.0290 -80.1780 200° South 472 543 38,000  Level FlightAware
04:53PM 26.9710 -80.2010 199° South 472 543 38,000  Level FlightAware
04:53PM 26.9050 -80.2280 200° South 472 543 38,000  Level FlightAware
04:54PM 26.8060 -80.2680 200° South 471 542 38,000  Level FlightAware
04:55PM 26.7390 -80.2950 200° South 470 541 38,000  Level FlightAware
04:55PM 26.6770 -80.3200 200° South 470 541 38,000  Level FlightAware
04:56PM 26.5700 -80.3630 200° South 471 542 38,000  Level FlightAware
04:57PM 26.5030 -80.3890 199° South 473 544 38,000  Level FlightAware
04:58PM 26.3900 -80.4350 200° South 475 547 38,000  Level FlightAware
04:59PM 26.2640 -80.4850 200° South 474 545 38,000  Level FlightAware
04:59PM 26.2150 -80.5040 199° South 473 544 38,000  Level FlightAware
05:00PM 26.0990 -80.5510 200° South 472 543 38,000  Level FlightAware
05:01PM 26.0060 -80.5870 199° South 471 542 38,000  Level FlightAware
05:02PM 25.8990 -80.6300 200° South 470 541 38,000  Level FlightAware
05:02PM 25.7960 -80.6710 200° South 471 542 38,000  Level FlightAware
05:03PM 25.7020 -80.7190 205° Southwest 463 533 38,000  Level FlightAware
05:04PM 25.6170 -80.8100 224° Southwest 459 528 38,000  Level FlightAware
05:05PM 25.5610 -80.8700 224° Southwest 459 528 38,000  Level FlightAware
05:06PM 25.4800 -80.9570 224° Southwest 460 529 38,000  Level FlightAware
05:07PM 25.3810 -81.0630 224° Southwest 453 521 38,000  Level FlightAware
05:08PM 25.2990 -81.1510 224° Southwest 449 517 38,000  Level FlightAware
05:08PM 25.2220 -81.2330 224° Southwest 448 516 38,000  Level FlightAware
05:09PM 25.1850 -81.2730 224° Southwest 448 516 38,000  Level FlightAware
05:09PM 25.1370 -81.3240 224° Southwest 449 517 38,000  Level FlightAware
05:10PM 25.0520 -81.4150 224° Southwest 449 517 38,000  Level FlightAware
05:11PM 24.9700 -81.5010 224° Southwest 447 514 38,000  Level FlightAware
05:12PM 24.8890 -81.5870 224° Southwest 445 512 38,000  Level FlightAware
05:13PM 24.8220 -81.6590 224° Southwest 445 512 38,000  Level FlightAware
05:14PM 24.7600 -81.7240 224° Southwest 445 512 38,000 -240 Level FlightAware
05:14PM 24.6890 -81.7990 224° Southwest 446 513 37,700 -1,800 Descending FlightAware
05:15PM 24.6040 -81.8890 224° Southwest 459 528 34,900 -2,520 Descending FlightAware
05:16PM 24.5270 -81.9690 223° Southwest 447 514 33,300 -1,920 Descending FlightAware
05:17PM 24.4470 -82.0530 224° Southwest 434 499 31,600 -1,920 Descending FlightAware
05:18PM 24.3750 -82.1280 224° Southwest 425 489 30,000 -1,920 Descending FlightAware
05:18PM 24.3370 -82.1680 224° Southwest 420 483 29,200 -1,800 Descending FlightAware
05:19PM 24.2910 -82.2160 224° Southwest 413 475 28,200 -1,920 Descending FlightAware
05:20PM 24.2140 -82.2970 224° Southwest 408 470 26,400 -1,860 Descending FlightAware
05:20PM 24.1760 -82.3360 223° Southwest 406 467 25,600 -1,680 Descending FlightAware
05:21PM 24.1000 -82.4150 224° Southwest 401 461 24,000 -1,260 Descending FlightAware
05:22PM 24.0250 -82.4770 217° Southwest 399 459 23,300 -420 Descending FlightAware
05:23PM 23.9630 -82.5240 215° Southwest 399 459 23,300  Level FlightAware
05:23PM 23.9330 -82.5480 216° Southwest 399 459 23,300  Level FlightAware
05:24PM 23.9000 -82.5720 214° Southwest 399 459 23,300  Level FlightAware
05:25PM 23.8230 -82.6310 215° Southwest 399 459 23,300  Level FlightAware
05:26PM 23.7620 -82.6780 215° Southwest 399 459 23,300  Level FlightAware
05:30PM 23.3370 -82.5297 162° South  Level Estimated
05:31PM 23.2271 -82.4915 162° South  Level Estimated
05:32PM 23.1171 -82.4534 162° South  Level Estimated
05:33PM 23.0072 -82.4153 162° South  Level Estimated
05:34PM 22.9891 -82.4091 162° South  Level Estimated
05:35PM 22.9891 -82.4091 51° Northeast  Level Estimated
05:36PM 22.9891 -82.4091 51° Northeast  Level Estimated
05:37PM 22.9891 -82.4091 51° Northeast  Level Estimated
05:38PM 22.9891 -82.4091 51° Northeast  Level Estimated
05:39PM 22.9891 -82.4091 51° Northeast  Level Estimated
05:40PM 22.9891 -82.4091 51° Northeast  Level Estimated
05:41PM 22.9891 -82.4091 51° Northeast  Level Estimated
05:42PM 22.9891 -82.4091 51° Northeast  Level Estimated
05:43PM 22.9891 -82.4091 51° Northeast  Level Estimated
05:44PM 22.9891 -82.4091 51° Northeast  Level Estimated
05:45PM 22.9891 -82.4091 51° Northeast  Level Estimated
05:46PM 22.9891 -82.4091 51° Northeast  Level Estimated
05:47PM 22.9891 -82.4091 51° Northeast  Level Estimated
05:48PM 22.9891 -82.4091 51° Northeast  Level Estimated
05:49PM 22.9891 -82.4091 51° Northeast  Level Estimated
05:50PM 22.9891 -82.4091 51° Northeast  Level Estimated
05:51PM 22.9891 -82.4091 51° Northeast  Level Estimated
05:52PM 22.9891 -82.4091 51° Northeast  Level Estimated
05:53PM 22.9891 -82.4091 51° Northeast  Level Estimated
05:54PM 22.9891 -82.4091 51° Northeast  Level Estimated